Statesboro, GA

12:55 PM EST on November 24, 2014 (GMT -0500)
Statesboro-Bulloch County | Change Station
CLOSE
Current Station
Airport
Location: Statesboro,
Elevation: 187 ft
Nearby Weather Stations

Elev 187 ft 32.48 °N, 81.74 °W | Updated 20 minutes ago

Overcast
Overcast
71 °F
Feels Like 71 °F
N
8
Wind Variable Wind from SSW

Today
High -- | Low -- °F
--% Chance of Precip.
Yesterday
High -- | Low -- °F
Precip. -- in
7:04 AM 5:22 PM
Waxing Crescent, 6% visible
Pressure 29.86 in
Visibility 7.0 miles
Clouds Scattered Clouds 1400 ft
Scattered Clouds 4300 ft
Overcast 5000 ft
Dew Point 71 °F
Humidity 100%
Rainfall 0.00 in
Snow Depth Not available.
UV 1 out of 12
Pollen 2.30 out of 12
Air Quality Not available.
Flu Activity Not available.
METAR KTBR 241735Z AUTO 20007KT 7SM DZ SCT014 SCT043 OVC050 22/22 A2986 RMK AO2 T02150215

More Conditions Fewer Conditions

Pressure 29.86 in
Visibility 7.0 miles
Clouds Scattered Clouds 1400 ft
Scattered Clouds 4300 ft
Overcast 5000 ft
Dew Point 71 °F
Humidity 100%
Rainfall 0.00 in
Snow Depth Not available.
UV 1 out of 12
Pollen 2.30 out of 12
Air Quality Not available.
Flu Activity Not available.
METAR KTBR 241735Z AUTO 20007KT 7SM DZ SCT014 SCT043 OVC050 22/22 A2986 RMK AO2 T02150215

More Conditions Fewer Conditions

10-Day Weather Forecast

Almanac

Astronomy

Nov. 24, 2014 Rise Set
Actual Time
Civil Twilight
Nautical Twilight
Astronomical Twilight
Moon
Length of Visible Light
Length of Day
Tomorrow will be .
, % of the Moon is Illuminated

Today's Extremes

State Highs State Lows

Community

WunderPhotos

Upload Photos

1,773,379 photos uploaded!

WunderBlogs® & News

Nearby

Air Quality

  Air Quality AQ Index Pollutant
Not available.

Snow Depth

Station Depth Elevation

Earthquake Activity

City Distance Mag. Time & Date
Minimum magnitude displayed is 2.5.

Coastal Water Temperatures

Place Temperature

Nearby Weather Stations